Time;durP1;ratioP1;P1;durP2;ratioP2;P2;SDS_P1;SDS_P2;PMS_P1;PMS_P2;Temp;Humidity;BMP_temperature;BMP_pressure;BME280_temperature;BME280_humidity;BME280_pressure;Samples;Min_cycle;Max_cycle;Signal;HPM_P1;HPM_P2
2022/05/05 00:01:28;;;;;;;15.40;8.05;;;6.60;99.90;;;;;;5049654;28;20037;-74
2022/05/05 00:03:54;;;;;;;20.30;7.47;;;6.60;99.90;;;;;;5049085;28;20044;-74
2022/05/05 00:06:19;;;;;;;16.65;9.00;;;6.50;99.90;;;;;;5049082;28;20542;-74
2022/05/05 00:08:45;;;;;;;17.83;8.55;;;6.50;99.90;;;;;;5049356;28;20353;-74
2022/05/05 00:16:38;;;;;;;18.08;8.40;;;6.30;99.90;;;;;;5048879;28;20055;-74
2022/05/05 00:19:04;;;;;;;18.40;8.48;;;6.20;99.90;;;;;;5048448;28;20041;-74
2022/05/05 00:21:30;;;;;;;16.02;8.15;;;6.10;99.90;;;;;;5048376;28;20495;-74
2022/05/05 00:23:55;;;;;;;18.73;8.63;;;6.20;99.90;;;;;;5061139;28;20044;-74
2022/05/05 00:26:21;;;;;;;16.13;7.97;;;6.20;99.90;;;;;;5078805;28;20046;-74
2022/05/05 00:28:47;;;;;;;11.25;7.35;;;6.20;99.90;;;;;;5048885;28;20037;-74
2022/05/05 00:31:12;;;;;;;13.98;7.00;;;6.20;99.90;;;;;;5048105;28;20480;-74
2022/05/05 00:33:38;;;;;;;14.65;6.90;;;6.10;99.90;;;;;;5063766;28;20125;-74
2022/05/05 00:36:04;;;;;;;13.98;7.68;;;6.00;99.90;;;;;;5050247;28;20059;-74
2022/05/05 00:38:29;;;;;;;15.48;7.72;;;6.00;99.90;;;;;;5060329;28;20032;-74
2022/05/05 00:40:55;;;;;;;12.85;7.22;;;5.90;99.90;;;;;;5049697;28;20047;-73
2022/05/05 00:43:21;;;;;;;13.95;7.30;;;5.90;99.90;;;;;;5046150;28;20393;-73
2022/05/05 00:45:46;;;;;;;11.15;7.30;;;5.90;99.90;;;;;;5049770;28;20041;-74
2022/05/05 00:48:16;;;;;;;13.70;7.80;;;5.80;99.90;;;;;;5047934;28;20033;-74
2022/05/05 00:50:41;;;;;;;17.52;8.40;;;5.80;99.90;;;;;;5047416;28;20111;-74
2022/05/05 00:53:07;;;;;;;14.30;8.35;;;5.90;99.90;;;;;;5047910;28;20033;-74
2022/05/05 00:55:35;;;;;;;19.83;8.65;;;5.90;99.90;;;;;;5047368;28;20456;-74
2022/05/05 00:58:03;;;;;;;20.27;8.90;;;5.90;99.90;;;;;;5064978;28;20059;-74
2022/05/05 01:00:29;;;;;;;19.25;8.70;;;5.90;99.90;;;;;;5082667;28;20043;-74
2022/05/05 01:02:58;;;;;;;15.75;8.93;;;5.90;99.90;;;;;;5046783;28;20528;-74
2022/05/05 01:05:24;;;;;;;17.25;8.73;;;6.00;99.90;;;;;;5033518;28;20037;-74
2022/05/05 01:07:50;;;;;;;19.27;8.93;;;6.00;99.90;;;;;;5048646;28;20129;-74
2022/05/05 01:10:16;;;;;;;20.33;8.95;;;6.00;99.90;;;;;;5047563;28;20041;-74
2022/05/05 01:12:42;;;;;;;16.15;8.43;;;6.00;99.90;;;;;;5047346;28;20033;-74
2022/05/05 01:15:09;;;;;;;14.95;8.85;;;6.00;99.90;;;;;;5063359;28;20388;-74
2022/05/05 01:17:34;;;;;;;17.45;9.52;;;6.00;99.90;;;;;;5048821;28;20040;-74
2022/05/05 01:20:14;;;;;;;17.80;8.55;;;6.00;99.90;;;;;;5046204;28;20044;-74
2022/05/05 01:22:40;;;;;;;19.83;8.88;;;6.00;99.90;;;;;;5062755;28;20438;-74
2022/05/05 01:30:34;;;;;;;22.60;9.32;;;6.10;99.90;;;;;;5047098;28;20068;-74
2022/05/05 01:32:59;;;;;;;19.58;9.35;;;6.10;99.90;;;;;;5049210;28;20033;-74
2022/05/05 01:35:25;;;;;;;19.95;9.68;;;6.20;99.90;;;;;;5048162;28;20391;-74
2022/05/05 01:37:51;;;;;;;20.65;9.95;;;6.20;99.90;;;;;;5049047;28;20938;-74
2022/05/05 01:40:16;;;;;;;16.92;9.25;;;6.20;99.90;;;;;;5042740;28;20546;-74
2022/05/05 01:42:45;;;;;;;20.52;9.52;;;6.20;99.90;;;;;;5044520;28;20037;-74
2022/05/05 01:45:10;;;;;;;16.58;8.73;;;6.20;99.90;;;;;;5062899;28;20064;-74
2022/05/05 01:47:37;;;;;;;19.13;9.38;;;6.20;99.90;;;;;;5048680;28;20126;-74
2022/05/05 01:50:03;;;;;;;18.15;9.35;;;6.30;99.90;;;;;;5078779;28;20077;-74
2022/05/05 01:52:28;;;;;;;19.60;9.43;;;6.30;99.90;;;;;;5045978;28;20033;-74
2022/05/05 01:54:54;;;;;;;16.52;8.13;;;6.30;99.90;;;;;;5047287;28;20546;-74
2022/05/05 01:57:19;;;;;;;15.75;8.20;;;6.30;99.90;;;;;;5045601;28;20759;-74
2022/05/05 01:59:45;;;;;;;20.40;9.27;;;6.20;99.90;;;;;;5079672;28;20064;-74
2022/05/05 02:02:10;;;;;;;18.58;9.23;;;6.20;99.90;;;;;;5046428;28;20075;-74
2022/05/05 02:04:36;;;;;;;20.88;9.65;;;6.20;99.90;;;;;;5063768;28;20037;-74
2022/05/05 02:07:03;;;;;;;21.45;9.50;;;6.20;99.90;;;;;;5047311;28;20301;-74
2022/05/05 02:09:30;;;;;;;17.58;9.38;;;6.10;99.90;;;;;;5059320;28;20400;-74
2022/05/05 02:11:56;;;;;;;20.90;9.77;;;6.10;99.90;;;;;;5081119;28;20048;-74
2022/05/05 02:14:23;;;;;;;17.17;10.07;;;6.10;99.90;;;;;;5045772;28;20040;-74
2022/05/05 02:16:49;;;;;;;18.85;9.82;;;6.00;99.90;;;;;;5044934;28;20491;-74
2022/05/05 02:19:15;;;;;;;20.02;9.60;;;6.00;99.90;;;;;;5046230;28;20534;-74
2022/05/05 02:21:41;;;;;;;18.67;9.68;;;5.90;99.90;;;;;;5081375;28;20072;-74
2022/05/05 02:24:06;;;;;;;18.67;8.98;;;5.90;99.90;;;;;;5045876;28;20037;-74
2022/05/05 02:26:32;;;;;;;16.25;8.95;;;5.80;99.90;;;;;;5048201;28;20131;-74
2022/05/05 02:28:57;;;;;;;18.63;8.90;;;5.70;99.90;;;;;;5040955;28;20503;-74
2022/05/05 02:31:23;;;;;;;19.23;9.00;;;5.60;99.90;;;;;;5038274;28;20128;-74
2022/05/05 02:33:48;;;;;;;17.42;9.13;;;5.50;99.90;;;;;;5028539;28;20038;-74
2022/05/05 02:38:58;;;;;;;21.80;10.20;;;5.40;99.90;;;;;;5061158;28;20452;-74
2022/05/05 02:41:24;;;;;;;21.92;10.25;;;5.40;99.90;;;;;;5046034;28;20025;-74
2022/05/05 02:43:50;;;;;;;21.50;10.80;;;5.40;99.90;;;;;;5030860;28;20159;-74
2022/05/05 02:46:15;;;;;;;18.63;9.95;;;5.40;99.90;;;;;;5045602;28;20226;-74
2022/05/05 02:48:41;;;;;;;25.15;10.43;;;5.30;99.90;;;;;;5026271;28;20048;-74
2022/05/05 02:51:07;;;;;;;22.58;9.75;;;5.30;99.90;;;;;;5044298;28;20037;-74
2022/05/05 02:56:17;;;;;;;21.95;9.48;;;5.30;99.90;;;;;;5082628;28;20066;-74
2022/05/05 02:58:42;;;;;;;15.35;8.18;;;5.20;99.90;;;;;;5061042;28;20036;-74
2022/05/05 03:01:08;;;;;;;13.93;8.07;;;5.20;99.90;;;;;;5047272;28;20041;-74
2022/05/05 03:03:37;;;;;;;14.13;7.38;;;5.10;99.90;;;;;;5063176;28;20473;-74
2022/05/05 03:06:02;;;;;;;13.63;7.57;;;5.10;99.90;;;;;;5047261;28;20533;-74
2022/05/05 03:08:28;;;;;;;18.10;8.55;;;5.10;99.90;;;;;;5044457;28;20038;-74
2022/05/05 03:10:53;;;;;;;18.60;9.55;;;5.00;99.90;;;;;;5058493;28;20050;-74
2022/05/05 03:13:19;;;;;;;16.23;9.15;;;4.90;99.90;;;;;;5047132;28;20033;-74
2022/05/05 03:15:45;;;;;;;17.30;9.27;;;4.90;99.90;;;;;;5045507;28;20033;-74
2022/05/05 03:18:10;;;;;;;19.92;9.38;;;4.90;99.90;;;;;;5044257;28;20033;-74
2022/05/05 03:20:36;;;;;;;21.38;9.90;;;4.90;99.90;;;;;;5047585;28;20037;-74
2022/05/05 03:23:03;;;;;;;21.27;9.32;;;4.90;99.90;;;;;;5046213;28;20044;-74
2022/05/05 03:25:28;;;;;;;21.20;8.45;;;4.90;99.90;;;;;;5045768;28;20415;-74
2022/05/05 03:27:54;;;;;;;23.77;10.15;;;4.90;99.90;;;;;;5043072;28;20055;-74
2022/05/05 03:30:19;;;;;;;20.52;9.15;;;4.90;99.90;;;;;;5047973;28;20195;-74
2022/05/05 03:32:45;;;;;;;18.55;8.90;;;4.90;99.90;;;;;;5050106;28;20033;-74
2022/05/05 03:35:10;;;;;;;20.63;9.65;;;4.90;99.90;;;;;;5048762;28;20037;-74
2022/05/05 03:37:36;;;;;;;18.90;8.90;;;4.90;99.90;;;;;;5051031;28;20064;-74
2022/05/05 03:40:02;;;;;;;21.52;10.27;;;4.90;99.90;;;;;;5048502;28;20033;-73
2022/05/05 03:42:28;;;;;;;17.48;9.75;;;4.90;99.90;;;;;;5049211;28;20044;-74
2022/05/05 03:44:54;;;;;;;22.70;10.40;;;4.80;99.90;;;;;;5049698;28;20047;-74
2022/05/05 03:47:19;;;;;;;22.83;10.27;;;4.80;99.90;;;;;;5046746;28;20049;-74
2022/05/05 03:49:45;;;;;;;22.77;10.80;;;4.80;99.90;;;;;;5045983;28;20048;-74
2022/05/05 03:52:11;;;;;;;24.40;10.85;;;4.80;99.90;;;;;;5049298;28;20043;-74
2022/05/05 03:54:37;;;;;;;21.17;10.45;;;4.80;99.90;;;;;;5051066;28;20071;-74
2022/05/05 03:57:02;;;;;;;26.85;10.50;;;4.80;99.90;;;;;;5050126;28;20043;-74
2022/05/05 03:59:28;;;;;;;18.25;9.88;;;4.80;99.90;;;;;;5033847;28;20112;-74
2022/05/05 04:01:53;;;;;;;20.30;10.35;;;4.80;99.90;;;;;;5050734;28;20052;-74
2022/05/05 04:04:19;;;;;;;23.48;10.80;;;4.80;99.90;;;;;;5050030;28;20037;-74
2022/05/05 04:06:45;;;;;;;21.52;11.15;;;4.80;99.90;;;;;;5049065;28;20029;-74
2022/05/05 04:09:11;;;;;;;19.55;10.02;;;4.70;99.90;;;;;;5050004;28;20171;-73
2022/05/05 04:11:37;;;;;;;19.85;10.32;;;4.70;99.90;;;;;;5049583;28;20102;-73
2022/05/05 04:14:03;;;;;;;10.52;6.43;;;4.70;99.90;;;;;;5049892;28;20060;-73
2022/05/05 04:16:31;;;;;;;10.52;5.45;;;4.60;99.90;;;;;;5049916;28;20073;-74
2022/05/05 04:18:58;;;;;;;8.80;5.28;;;4.40;99.90;;;;;;5083414;28;20051;-74
2022/05/05 04:21:24;;;;;;;7.90;5.10;;;4.20;99.90;;;;;;5047908;28;20086;-74
2022/05/05 04:23:50;;;;;;;7.40;5.10;;;4.10;99.90;;;;;;5049261;28;20438;-74
2022/05/05 04:26:16;;;;;;;9.25;5.90;;;4.10;99.90;;;;;;5054274;28;20128;-73
2022/05/05 04:28:46;;;;;;;8.13;4.95;;;4.10;99.90;;;;;;5050472;28;20048;-73
2022/05/05 04:31:14;;;;;;;6.82;4.63;;;4.10;99.90;;;;;;5049192;28;20041;-73
2022/05/05 04:33:41;;;;;;;14.90;7.72;;;4.00;99.90;;;;;;5047904;28;20068;-74
2022/05/05 04:36:07;;;;;;;15.93;7.95;;;4.10;99.90;;;;;;5048075;28;20029;-74
2022/05/05 04:38:33;;;;;;;14.15;8.63;;;4.10;99.90;;;;;;5040832;28;20030;-73
2022/05/05 04:40:59;;;;;;;18.58;9.02;;;4.20;99.90;;;;;;5049946;28;20097;-74
2022/05/05 04:43:25;;;;;;;22.30;10.27;;;4.20;99.90;;;;;;5051471;28;20037;-74
2022/05/05 04:45:50;;;;;;;19.48;9.70;;;4.30;99.90;;;;;;5033156;28;20449;-74
2022/05/05 04:48:16;;;;;;;21.40;10.57;;;4.30;99.90;;;;;;5049628;28;20043;-74
2022/05/05 04:50:42;;;;;;;23.42;11.48;;;4.40;99.90;;;;;;5049378;28;20033;-74
2022/05/05 04:53:07;;;;;;;25.05;11.40;;;4.40;99.90;;;;;;5043683;28;20503;-74
2022/05/05 04:55:33;;;;;;;14.07;8.30;;;4.50;99.90;;;;;;5047647;28;20025;-74
2022/05/05 04:57:59;;;;;;;120.50;10.32;;;4.50;99.90;;;;;;5048045;28;20045;-73
2022/05/05 05:00:24;;;;;;;39.17;8.05;;;4.50;99.90;;;;;;5049522;28;20045;-73
2022/05/05 05:02:50;;;;;;;12.50;5.93;;;4.30;99.90;;;;;;5049440;28;20029;-73
2022/05/05 05:05:16;;;;;;;13.35;7.38;;;4.30;99.90;;;;;;5049568;28;20048;-73
2022/05/05 05:07:42;;;;;;;19.00;9.32;;;4.20;99.90;;;;;;5031858;28;20427;-73
2022/05/05 05:10:08;;;;;;;22.05;9.48;;;4.20;99.90;;;;;;5063593;28;20098;-73
2022/05/05 05:12:34;;;;;;;19.98;10.23;;;4.30;99.90;;;;;;5048665;28;20037;-73
2022/05/05 05:14:59;;;;;;;23.23;10.23;;;4.30;99.90;;;;;;5049233;28;20025;-73
2022/05/05 05:17:25;;;;;;;20.70;10.20;;;4.40;99.90;;;;;;5049131;28;20029;-73
2022/05/05 05:19:50;;;;;;;19.60;10.02;;;4.40;99.90;;;;;;5049017;28;20045;-73
2022/05/05 05:22:16;;;;;;;25.95;10.57;;;4.40;99.90;;;;;;5049012;28;21894;-73
2022/05/05 05:24:41;;;;;;;22.10;10.82;;;4.50;99.90;;;;;;5049051;28;20045;-73
2022/05/05 05:27:07;;;;;;;24.95;11.73;;;4.40;99.90;;;;;;5045491;28;20264;-74
2022/05/05 05:29:33;;;;;;;28.08;11.82;;;4.50;99.90;;;;;;5049421;28;20062;-73
2022/05/05 05:31:58;;;;;;;27.17;12.05;;;4.50;99.90;;;;;;5048872;28;20047;-73
2022/05/05 05:34:24;;;;;;;25.63;12.32;;;4.60;99.90;;;;;;5048822;28;20110;-73
2022/05/05 05:36:49;;;;;;;30.17;12.65;;;4.60;99.90;;;;;;5032936;28;20094;-73
2022/05/05 05:39:17;;;;;;;23.13;11.77;;;4.60;99.90;;;;;;5048666;28;20078;-73
2022/05/05 05:41:43;;;;;;;22.77;11.00;;;4.70;99.90;;;;;;5047864;28;20049;-73
2022/05/05 05:44:08;;;;;;;22.88;10.90;;;4.80;99.90;;;;;;5044246;28;20387;-73
2022/05/05 05:46:34;;;;;;;27.63;12.48;;;5.00;99.90;;;;;;5048706;28;20075;-73
2022/05/05 05:49:00;;;;;;;29.38;12.90;;;5.10;99.90;;;;;;5046689;28;20049;-73
2022/05/05 05:51:25;;;;;;;26.73;12.43;;;5.20;99.90;;;;;;5044498;28;20404;-73
2022/05/05 05:53:51;;;;;;;33.20;13.02;;;5.40;99.90;;;;;;5046359;28;20071;-73
2022/05/05 05:56:17;;;;;;;26.88;12.35;;;5.50;99.90;;;;;;5047747;28;20056;-73
2022/05/05 05:58:43;;;;;;;29.88;12.98;;;5.70;99.90;;;;;;5046813;28;20491;-73
2022/05/05 06:01:08;;;;;;;27.60;12.85;;;5.80;99.90;;;;;;5049590;28;20094;-73
2022/05/05 06:06:18;;;;;;;29.02;13.73;;;6.30;99.90;;;;;;5060442;28;20041;-73
2022/05/05 06:08:44;;;;;;;29.73;14.40;;;6.50;99.90;;;;;;5050864;28;20037;-72
2022/05/05 06:11:11;;;;;;;33.53;15.65;;;6.60;99.90;;;;;;5049363;28;20037;-73
2022/05/05 06:13:37;;;;;;;32.40;15.32;;;6.80;99.90;;;;;;5047874;28;20535;-72
2022/05/05 06:16:04;;;;;;;36.92;16.67;;;7.00;99.90;;;;;;5049371;28;20037;-73
2022/05/05 06:18:30;;;;;;;36.53;15.98;;;7.20;99.90;;;;;;5045702;28;20043;-73
2022/05/05 06:20:56;;;;;;;35.15;16.85;;;7.40;99.90;;;;;;5030703;28;20037;-72
2022/05/05 06:23:22;;;;;;;36.28;18.08;;;7.70;99.90;;;;;;5051523;28;20090;-73
2022/05/05 06:25:47;;;;;;;39.30;18.00;;;7.90;99.90;;;;;;5046074;28;20037;-73
2022/05/05 06:28:13;;;;;;;38.47;18.75;;;8.10;99.90;;;;;;5046725;28;20043;-73
2022/05/05 06:30:39;;;;;;;36.83;17.10;;;8.30;99.90;;;;;;5039562;28;20124;-74
2022/05/05 06:33:04;;;;;;;33.03;16.60;;;8.50;99.90;;;;;;5043615;28;20115;-73
2022/05/05 06:35:30;;;;;;;37.58;17.85;;;8.80;99.90;;;;;;5059451;28;20091;-73
2022/05/05 06:37:56;;;;;;;37.55;18.13;;;9.00;99.90;;;;;;5048067;28;20037;-73
2022/05/05 06:40:21;;;;;;;34.75;17.60;;;9.30;99.90;;;;;;5029976;28;20041;-73
2022/05/05 06:42:48;;;;;;;40.40;18.90;;;9.50;99.90;;;;;;5028682;28;20503;-72
2022/05/05 06:45:14;;;;;;;37.20;17.67;;;9.70;99.90;;;;;;5026847;28;20056;-73
2022/05/05 06:47:40;;;;;;;37.47;18.98;;;10.00;99.90;;;;;;5041808;28;20091;-73
2022/05/05 06:50:06;;;;;;;39.00;18.17;;;10.30;99.90;;;;;;5041316;28;20041;-74
2022/05/05 06:52:32;;;;;;;39.85;17.85;;;10.50;99.90;;;;;;5039239;28;20069;-73
2022/05/05 06:54:58;;;;;;;42.58;18.90;;;10.80;99.90;;;;;;5042593;28;20140;-74
2022/05/05 06:57:23;;;;;;;37.25;17.90;;;11.00;99.90;;;;;;5042980;28;20063;-74
2022/05/05 06:59:49;;;;;;;41.50;18.23;;;11.20;99.90;;;;;;5059199;28;20495;-73
2022/05/05 07:02:15;;;;;;;35.83;17.77;;;11.40;99.90;;;;;;5037335;28;20446;-73
2022/05/05 07:07:24;;;;;;;38.10;18.08;;;11.80;99.90;;;;;;5045894;28;20124;-74
2022/05/05 07:12:34;;;;;;;35.17;16.40;;;12.10;99.90;;;;;;5041235;28;20068;-74
2022/05/05 07:15:00;;;;;;;38.15;16.77;;;12.30;99.90;;;;;;5039580;28;20491;-75
2022/05/05 07:17:26;;;;;;;30.42;16.23;;;12.50;99.90;;;;;;5041167;28;20043;-74
2022/05/05 07:19:52;;;;;;;36.38;15.65;;;12.60;99.90;;;;;;5043236;28;20040;-75
2022/05/05 07:22:18;;;;;;;36.40;15.73;;;12.70;99.90;;;;;;5041814;28;20506;-74
2022/05/05 07:24:44;;;;;;;27.98;14.45;;;12.80;99.90;;;;;;5040841;28;20025;-74
2022/05/05 07:27:10;;;;;;;30.55;14.70;;;12.90;99.90;;;;;;5037239;28;20068;-74
2022/05/05 07:29:37;;;;;;;27.13;14.27;;;13.10;99.90;;;;;;5039623;28;20029;-74
2022/05/05 07:32:04;;;;;;;27.48;13.70;;;13.20;99.90;;;;;;5043130;28;20045;-74
2022/05/05 07:34:29;;;;;;;26.20;13.85;;;13.40;99.90;;;;;;5040170;28;20045;-74
2022/05/05 07:36:55;;;;;;;27.60;13.57;;;13.60;99.90;;;;;;5044557;28;20356;-75
2022/05/05 07:39:22;;;;;;;28.92;13.80;;;13.60;99.90;;;;;;5042433;28;20350;-76
2022/05/05 07:41:48;;;;;;;31.55;14.10;;;13.80;99.90;;;;;;5042377;28;20080;-74
2022/05/05 07:44:15;;;;;;;25.70;14.23;;;13.90;99.90;;;;;;5043391;28;20483;-75
2022/05/05 07:46:41;;;;;;;28.75;14.77;;;14.10;99.90;;;;;;5039643;28;20040;-75
2022/05/05 07:49:07;;;;;;;26.73;14.15;;;14.20;99.90;;;;;;5047476;28;20072;-76
2022/05/05 07:51:34;;;;;;;31.15;14.02;;;14.20;99.90;;;;;;5042102;28;20487;-76
2022/05/05 07:56:44;;;;;;;27.33;13.48;;;14.30;99.90;;;;;;5060254;28;20041;-76
2022/05/05 07:59:11;;;;;;;23.98;11.32;;;14.40;99.90;;;;;;5042174;28;20376;-75
2022/05/05 08:01:37;;;;;;;23.15;11.48;;;14.60;99.90;;;;;;5043032;28;20454;-76
2022/05/05 08:04:04;;;;;;;27.15;11.20;;;14.70;99.90;;;;;;5045496;28;20045;-75
2022/05/05 08:06:30;;;;;;;22.73;10.88;;;14.80;99.90;;;;;;5043013;28;20377;-76
2022/05/05 08:08:55;;;;;;;19.02;10.80;;;14.80;99.90;;;;;;5043214;28;20074;-76
2022/05/05 08:11:21;;;;;;;27.25;11.82;;;15.00;99.90;;;;;;5042368;28;20037;-76
2022/05/05 08:13:46;;;;;;;22.08;11.15;;;15.00;99.90;;;;;;5041719;28;20945;-76
2022/05/05 08:16:12;;;;;;;19.48;9.77;;;15.10;99.90;;;;;;5080877;28;20035;-76
2022/05/05 08:18:38;;;;;;;19.58;10.25;;;15.10;99.90;;;;;;5043838;28;20044;-76
2022/05/05 08:21:04;;;;;;;23.35;9.63;;;15.10;99.90;;;;;;5043155;28;20079;-76
2022/05/05 08:23:30;;;;;;;17.25;9.40;;;15.30;99.90;;;;;;5046514;28;20032;-76
2022/05/05 08:28:40;;;;;;;22.67;11.15;;;15.30;99.90;;;;;;5047009;28;20549;-76
2022/05/05 08:31:06;;;;;;;19.02;9.95;;;15.40;99.90;;;;;;5063060;28;20063;-77
2022/05/05 08:33:32;;;;;;;21.70;10.63;;;15.60;99.90;;;;;;5022420;28;20480;-77
2022/05/05 08:35:58;;;;;;;18.52;10.45;;;15.80;99.90;;;;;;5040029;28;20048;-76
2022/05/05 08:38:24;;;;;;;23.23;10.75;;;15.90;99.90;;;;;;5044172;28;20079;-76
2022/05/05 08:40:51;;;;;;;18.88;10.63;;;15.90;99.90;;;;;;5039480;28;20033;-76
2022/05/05 08:43:17;;;;;;;19.85;11.18;;;16.00;99.90;;;;;;5044561;28;20071;-76
2022/05/05 08:45:45;;;;;;;17.40;10.32;;;16.00;99.90;;;;;;5038823;28;20235;-77
2022/05/05 08:48:12;;;;;;;17.10;10.15;;;16.10;99.90;;;;;;5061462;28;20037;-75
2022/05/05 08:50:39;;;;;;;18.77;10.50;;;16.20;99.90;;;;;;5042134;28;20032;-76
2022/05/05 08:53:06;;;;;;;21.67;10.82;;;16.10;99.90;;;;;;5042807;28;20044;-77
2022/05/05 08:55:32;;;;;;;21.35;10.68;;;16.00;99.90;;;;;;5045438;28;20086;-77
2022/05/05 08:58:00;;;;;;;18.58;10.00;;;16.10;99.90;;;;;;5044829;28;20488;-76
2022/05/05 09:00:29;;;;;;;18.05;10.48;;;16.20;99.90;;;;;;5043491;28;20086;-77
2022/05/05 09:02:56;;;;;;;16.98;9.70;;;16.10;99.90;;;;;;5044210;28;20420;-77
2022/05/05 09:05:43;;;;;;;17.52;10.13;;;16.20;99.90;;;;;;5045013;28;20613;-77
2022/05/05 09:08:11;;;;;;;19.33;10.20;;;16.20;99.90;;;;;;5044755;28;20076;-76
2022/05/05 09:10:45;;;;;;;20.73;11.32;;;16.30;99.90;;;;;;5024141;28;20037;-75
2022/05/05 09:13:11;;;;;;;22.67;10.27;;;16.30;99.90;;;;;;5042664;28;20079;-76
2022/05/05 09:15:40;;;;;;;18.98;10.63;;;16.20;99.90;;;;;;5050378;28;20040;-77
2022/05/05 09:18:25;;;;;;;21.63;9.63;;;16.20;99.90;;;;;;5049723;28;20491;-76
2022/05/05 09:20:52;;;;;;;20.63;10.68;;;16.30;99.90;;;;;;5049562;28;20047;-77
2022/05/05 09:23:28;;;;;;;16.65;10.23;;;16.40;99.90;;;;;;5050035;28;20047;-78
2022/05/05 09:25:54;;;;;;;17.15;10.65;;;16.50;99.90;;;;;;5042592;28;20040;-71
2022/05/05 09:28:26;;;;;;;19.98;10.70;;;16.50;99.90;;;;;;5040489;28;20075;-76
2022/05/05 09:30:52;;;;;;;;;;;16.40;99.90;;;;;;5040887;28;20041;-76
2022/05/05 09:33:41;;;;;;;23.48;11.32;;;16.40;99.90;;;;;;5040547;28;19976;-77
2022/05/05 09:36:14;;;;;;;23.35;11.65;;;16.40;99.90;;;;;;5040211;28;20037;-76
2022/05/05 09:39:03;;;;;;;19.17;11.13;;;16.50;99.90;;;;;;5055475;28;20535;-72
2022/05/05 09:41:32;;;;;;;25.17;12.35;;;16.70;99.90;;;;;;5037499;28;20436;-74
2022/05/05 09:44:00;;;;;;;19.73;10.75;;;16.90;99.90;;;;;;5045737;28;20048;-77
2022/05/05 09:46:26;;;;;;;21.30;10.60;;;17.00;99.90;;;;;;5048146;28;20049;-76
2022/05/05 09:49:07;;;;;;;19.55;10.93;;;16.90;99.90;;;;;;5047724;28;20040;-75
2022/05/05 09:51:35;;;;;;;18.38;9.88;;;16.90;99.90;;;;;;5047768;28;20569;-76
2022/05/05 09:59:49;;;;;;;16.67;10.00;;;17.30;99.90;;;;;;5036679;28;20041;-74
2022/05/05 10:05:15;;;;;;;21.92;9.52;;;17.50;99.90;;;;;;5042596;28;20120;-77
2022/05/05 10:07:44;;;;;;;16.25;9.57;;;17.50;99.90;;;;;;5074052;28;20441;-76
2022/05/05 10:10:15;;;;;;;14.82;8.52;;;17.60;99.90;;;;;;5039705;28;20723;-77
2022/05/05 10:12:41;;;;;;;15.85;9.30;;;17.70;99.90;;;;;;5058950;28;20036;-77
2022/05/05 10:15:08;;;;;;;18.33;9.73;;;17.70;99.90;;;;;;5041082;28;20043;-77
2022/05/05 10:17:35;;;;;;;15.65;9.05;;;17.60;99.90;;;;;;5060263;28;20431;-77
2022/05/05 10:20:02;;;;;;;15.45;9.45;;;17.70;99.90;;;;;;5041724;28;20080;-76
2022/05/05 10:22:55;;;;;;;17.40;10.48;;;17.80;99.90;;;;;;5081251;28;20041;-76
2022/05/05 10:25:26;;;;;;;19.83;10.00;;;18.00;99.90;;;;;;5030470;28;20084;-76
2022/05/05 10:27:54;;;;;;;18.80;10.10;;;17.90;99.90;;;;;;5021997;28;20045;-77
2022/05/05 10:30:34;;;;;;;17.83;10.82;;;17.90;99.90;;;;;;5040297;28;20045;-77
2022/05/05 10:33:06;;;;;;;20.85;10.82;;;18.10;99.90;;;;;;5042209;28;20036;-75
2022/05/05 10:35:45;;;;;;;21.67;11.57;;;18.30;99.90;;;;;;5041746;28;20467;-76
2022/05/05 10:38:39;;;;;;;16.58;10.82;;;18.40;99.90;;;;;;5041866;28;20041;-72
2022/05/05 10:41:30;;;;;;;18.52;10.40;;;18.40;99.90;;;;;;5037942;28;20410;-76
2022/05/05 10:44:16;;;;;;;22.25;10.75;;;18.40;98.70;;;;;;5041554;28;20385;-76
2022/05/05 10:46:54;;;;;;;17.35;10.13;;;18.50;99.90;;;;;;5039990;28;20036;-78
2022/05/05 10:49:35;;;;;;;18.60;10.52;;;18.60;98.10;;;;;;5040540;28;20311;-77
2022/05/05 10:52:10;;;;;;;20.70;10.82;;;18.70;97.00;;;;;;5038564;28;20049;-77
2022/05/05 10:54:37;;;;;;;21.50;10.88;;;18.80;97.40;;;;;;5039916;28;20037;-74
2022/05/05 10:57:24;;;;;;;20.60;11.55;;;18.80;98.10;;;;;;5040587;28;20051;-75
2022/05/05 11:00:12;;;;;;;19.08;10.73;;;18.70;99.80;;;;;;5041249;28;20075;-73
2022/05/05 11:02:40;;;;;;;19.35;10.77;;;18.70;99.90;;;;;;5039114;28;20060;-74
2022/05/05 11:05:28;;;;;;;19.73;11.20;;;18.80;99.90;;;;;;5056629;28;20041;-76
2022/05/05 11:08:09;;;;;;;16.63;10.65;;;19.10;97.00;;;;;;5051540;28;20033;-73
2022/05/05 11:10:40;;;;;;;22.70;11.40;;;19.20;99.90;;;;;;5053352;28;20044;-77
2022/05/05 11:13:06;;;;;;;17.50;11.57;;;19.20;97.20;;;;;;5037844;28;20488;-72
2022/05/05 11:21:33;;;;;;;21.85;12.60;;;19.30;98.00;;;;;;5048334;28;20076;-78
2022/05/05 11:24:00;;;;;;;19.48;12.63;;;19.30;94.00;;;;;;5042823;28;20040;-76
2022/05/05 11:26:27;;;;;;;25.42;12.57;;;19.10;88.00;;;;;;5024956;28;20060;-77
2022/05/05 11:28:53;;;;;;;22.75;13.32;;;18.80;95.20;;;;;;5062516;28;20174;-73
2022/05/05 11:31:23;;;;;;;26.80;13.38;;;18.90;94.10;;;;;;5048527;28;20103;-74
2022/05/05 11:33:55;;;;;;;24.90;13.35;;;18.90;99.90;;;;;;5029675;28;20038;-77
2022/05/05 11:36:25;;;;;;;21.00;12.30;;;18.90;97.50;;;;;;5047187;28;20037;-77
2022/05/05 11:38:51;;;;;;;25.40;13.02;;;18.90;95.80;;;;;;5047698;28;20040;-74
2022/05/05 11:41:18;;;;;;;24.67;13.30;;;18.80;96.80;;;;;;5047935;28;20128;-77
2022/05/05 11:46:31;;;;;;;23.75;13.68;;;18.70;97.80;;;;;;5047333;28;20115;-77
2022/05/05 11:48:57;;;;;;;23.30;13.25;;;18.60;99.80;;;;;;5027704;28;20042;-76
2022/05/05 11:51:24;;;;;;;23.17;12.30;;;18.70;98.60;;;;;;5036338;28;20042;-76
2022/05/05 11:53:58;;;;;;;23.70;13.10;;;18.70;99.80;;;;;;5032272;28;20484;-76
2022/05/05 11:56:24;;;;;;;24.02;13.00;;;18.80;97.10;;;;;;5054620;28;20041;-78
2022/05/05 12:01:38;;;;;;;21.13;11.82;;;18.90;97.50;;;;;;5052452;28;20114;-77
2022/05/05 12:04:04;;;;;;;18.52;12.10;;;18.90;98.20;;;;;;5052149;28;20060;-75
2022/05/05 12:06:31;;;;;;;21.85;11.75;;;18.90;97.00;;;;;;5055798;28;20167;-76
2022/05/05 12:08:58;;;;;;;20.55;11.50;;;18.90;94.30;;;;;;5058102;28;20044;-77
2022/05/05 12:11:27;;;;;;;19.73;11.10;;;19.00;93.40;;;;;;5054016;28;20085;-76
2022/05/05 12:14:06;;;;;;;22.13;11.68;;;19.00;92.00;;;;;;5050365;28;20400;-76
2022/05/05 12:16:37;;;;;;;21.10;13.70;;;18.90;91.30;;;;;;5053407;28;20381;-75
2022/05/05 12:19:14;;;;;;;19.85;12.32;;;18.70;94.00;;;;;;5049741;28;20604;-72
2022/05/05 12:21:58;;;;;;;23.13;13.10;;;18.50;99.90;;;;;;5051856;28;20155;-77
2022/05/05 12:24:24;;;;;;;19.38;12.13;;;18.60;99.30;;;;;;5050136;28;20041;-77
2022/05/05 12:27:07;;;;;;;24.98;13.02;;;18.70;96.90;;;;;;5050032;28;20037;-78
2022/05/05 12:29:44;;;;;;;23.42;12.32;;;18.80;96.50;;;;;;5048042;28;20045;-77
2022/05/05 12:32:15;;;;;;;19.33;11.88;;;18.90;96.80;;;;;;5029270;28;20068;-78
2022/05/05 12:34:41;;;;;;;20.52;12.32;;;19.10;98.70;;;;;;5050994;28;20036;-73
2022/05/05 12:37:13;;;;;;;22.35;12.35;;;19.30;99.90;;;;;;5050317;28;20078;-76
2022/05/05 12:40:01;;;;;;;20.27;12.57;;;19.40;97.60;;;;;;5050378;28;20037;-75
2022/05/05 12:42:48;;;;;;;23.67;11.43;;;19.30;96.60;;;;;;5051227;28;20032;-78
2022/05/05 12:45:29;;;;;;;22.58;12.20;;;19.30;94.50;;;;;;5047473;28;20116;-77
2022/05/05 12:47:58;;;;;;;17.65;10.60;;;19.30;94.60;;;;;;5045301;28;20053;-78
2022/05/05 12:50:34;;;;;;;18.35;11.82;;;19.30;93.50;;;;;;5046767;28;20045;-78
2022/05/05 13:01:25;;;;;;;15.23;8.40;;;19.40;72.10;;;;;;5047884;28;20056;-77
2022/05/05 13:03:54;;;;;;;12.38;8.48;;;19.60;73.70;;;;;;5080591;28;20044;-78
2022/05/05 13:06:21;;;;;;;12.40;6.85;;;19.80;79.50;;;;;;5063734;28;20086;-76
2022/05/05 13:08:47;;;;;;;10.20;6.88;;;19.90;80.80;;;;;;5047781;28;20136;-77
2022/05/05 13:11:14;;;;;;;10.88;7.50;;;20.00;82.10;;;;;;5031175;28;20391;-73
2022/05/05 13:13:40;;;;;;;12.00;6.72;;;20.30;92.20;;;;;;5046977;28;20052;-78
2022/05/05 13:16:05;;;;;;;8.93;6.45;;;20.30;65.80;;;;;;5053151;28;20082;-71
2022/05/05 13:18:31;;;;;;;14.10;7.85;;;20.20;62.40;;;;;;5046672;28;20128;-73
2022/05/05 13:20:57;;;;;;;10.55;7.75;;;20.20;73.40;;;;;;5049880;28;20045;-73
2022/05/05 13:23:22;;;;;;;10.30;7.43;;;20.30;74.20;;;;;;5046364;28;20052;-75
2022/05/05 13:25:48;;;;;;;8.10;6.10;;;20.30;78.10;;;;;;5031061;28;20091;-72
2022/05/05 13:28:13;;;;;;;10.25;5.90;;;20.20;65.10;;;;;;5043218;28;20041;-74
2022/05/05 13:30:39;;;;;;;9.63;5.45;;;20.10;69.50;;;;;;5042231;28;20052;-77
2022/05/05 13:33:04;;;;;;;8.98;6.75;;;20.30;76.50;;;;;;5049237;28;20025;-78
2022/05/05 13:35:30;;;;;;;11.82;6.18;;;20.60;56.60;;;;;;5043094;28;20029;-78
2022/05/05 13:37:58;;;;;;;9.32;5.88;;;20.60;55.00;;;;;;5048911;28;20071;-75